sensor_id;sensor_type;location;lat;lon;timestamp;pressure;altitude;pressure_sealevel;temperature;humidity
24154;BME280;12312;53.362;-1.518;2023-07-08T00:01:42;99007.31;;;19.82;82.09
24154;BME280;12312;53.362;-1.518;2023-07-08T00:04:26;99001.72;;;19.84;82.98
24154;BME280;12312;53.362;-1.518;2023-07-08T00:07:12;99005.72;;;20.04;82.37
24154;BME280;12312;53.362;-1.518;2023-07-08T00:09:58;99002.09;;;19.81;83.23
24154;BME280;12312;53.362;-1.518;2023-07-08T00:12:44;98991.91;;;19.83;83.54
24154;BME280;12312;53.362;-1.518;2023-07-08T00:15:30;98990.34;;;19.58;85.48
24154;BME280;12312;53.362;-1.518;2023-07-08T00:18:18;98982.41;;;19.56;84.50
24154;BME280;12312;53.362;-1.518;2023-07-08T00:21:02;98985.03;;;19.80;83.21
24154;BME280;12312;53.362;-1.518;2023-07-08T00:23:50;98983.78;;;19.91;82.61
24154;BME280;12312;53.362;-1.518;2023-07-08T00:26:35;98984.22;;;20.02;81.25
24154;BME280;12312;53.362;-1.518;2023-07-08T00:29:19;98986.72;;;20.20;79.79
24154;BME280;12312;53.362;-1.518;2023-07-08T00:32:12;98989.50;;;20.34;79.36
24154;BME280;12312;53.362;-1.518;2023-07-08T00:34:57;98988.53;;;20.27;79.85
24154;BME280;12312;53.362;-1.518;2023-07-08T00:37:41;98986.06;;;20.18;79.33
24154;BME280;12312;53.362;-1.518;2023-07-08T00:40:25;98981.56;;;20.33;78.87
24154;BME280;12312;53.362;-1.518;2023-07-08T00:43:09;98980.97;;;20.23;78.10
24154;BME280;12312;53.362;-1.518;2023-07-08T00:46:08;98978.97;;;20.09;78.51
24154;BME280;12312;53.362;-1.518;2023-07-08T00:52:39;98965.81;;;20.14;79.44
24154;BME280;12312;53.362;-1.518;2023-07-08T00:55:23;98969.94;;;19.94;79.75
24154;BME280;12312;53.362;-1.518;2023-07-08T00:58:08;98970.22;;;20.07;79.64
24154;BME280;12312;53.362;-1.518;2023-07-08T01:00:54;98969.88;;;20.10;79.64
24154;BME280;12312;53.362;-1.518;2023-07-08T01:04:00;98964.81;;;20.07;80.32
24154;BME280;12312;53.362;-1.518;2023-07-08T01:06:50;98961.78;;;20.02;80.45
24154;BME280;12312;53.362;-1.518;2023-07-08T01:09:43;98963.94;;;19.76;82.17
24154;BME280;12312;53.362;-1.518;2023-07-08T01:12:47;98961.50;;;19.89;82.59
24154;BME280;12312;53.362;-1.518;2023-07-08T01:15:37;98963.97;;;19.68;83.64
24154;BME280;12312;53.362;-1.518;2023-07-08T01:18:23;98961.75;;;19.79;82.32
24154;BME280;12312;53.362;-1.518;2023-07-08T01:21:34;98970.78;;;19.94;83.29
24154;BME280;12312;53.362;-1.518;2023-07-08T01:24:19;98959.13;;;19.94;82.24
24154;BME280;12312;53.362;-1.518;2023-07-08T01:27:06;98959.88;;;19.80;84.19
24154;BME280;12312;53.362;-1.518;2023-07-08T01:29:50;98962.91;;;19.77;83.68
24154;BME280;12312;53.362;-1.518;2023-07-08T01:32:37;98956.81;;;19.83;83.29
24154;BME280;12312;53.362;-1.518;2023-07-08T01:35:22;98963.69;;;19.55;84.79
24154;BME280;12312;53.362;-1.518;2023-07-08T01:38:10;98954.88;;;19.69;84.47
24154;BME280;12312;53.362;-1.518;2023-07-08T01:40:57;98951.94;;;19.31;86.04
24154;BME280;12312;53.362;-1.518;2023-07-08T01:43:41;98959.00;;;19.40;84.78
24154;BME280;12312;53.362;-1.518;2023-07-08T01:46:26;98960.53;;;19.35;86.74
24154;BME280;12312;53.362;-1.518;2023-07-08T01:49:11;98966.78;;;19.19;86.56
24154;BME280;12312;53.362;-1.518;2023-07-08T01:51:55;98965.63;;;19.14;87.45
24154;BME280;12312;53.362;-1.518;2023-07-08T01:54:40;98954.25;;;19.26;87.14
24154;BME280;12312;53.362;-1.518;2023-07-08T01:57:24;98961.06;;;18.90;88.23
24154;BME280;12312;53.362;-1.518;2023-07-08T02:00:08;98959.53;;;19.04;88.60
24154;BME280;12312;53.362;-1.518;2023-07-08T02:02:53;98958.41;;;18.74;89.26
24154;BME280;12312;53.362;-1.518;2023-07-08T02:05:37;98953.97;;;19.29;87.51
24154;BME280;12312;53.362;-1.518;2023-07-08T02:08:21;98958.03;;;19.01;88.29
24154;BME280;12312;53.362;-1.518;2023-07-08T02:11:05;98952.59;;;19.25;88.69
24154;BME280;12312;53.362;-1.518;2023-07-08T02:13:49;98950.25;;;19.30;89.26
24154;BME280;12312;53.362;-1.518;2023-07-08T02:16:35;98944.56;;;18.53;89.96
24154;BME280;12312;53.362;-1.518;2023-07-08T02:19:20;98942.19;;;18.90;89.86
24154;BME280;12312;53.362;-1.518;2023-07-08T02:22:06;98943.53;;;18.46;91.49
24154;BME280;12312;53.362;-1.518;2023-07-08T02:24:50;98937.81;;;18.81;88.61
24154;BME280;12312;53.362;-1.518;2023-07-08T02:27:35;98936.81;;;18.58;89.29
24154;BME280;12312;53.362;-1.518;2023-07-08T02:30:19;98930.25;;;18.61;91.25
24154;BME280;12312;53.362;-1.518;2023-07-08T02:33:03;98928.03;;;18.88;90.22
24154;BME280;12312;53.362;-1.518;2023-07-08T02:35:47;98927.72;;;18.75;90.30
24154;BME280;12312;53.362;-1.518;2023-07-08T02:38:33;98917.28;;;18.80;90.75
24154;BME280;12312;53.362;-1.518;2023-07-08T02:41:17;98915.84;;;19.16;91.27
24154;BME280;12312;53.362;-1.518;2023-07-08T02:44:01;98926.16;;;19.29;89.83
24154;BME280;12312;53.362;-1.518;2023-07-08T02:46:45;98916.88;;;19.07;89.38
24154;BME280;12312;53.362;-1.518;2023-07-08T02:49:29;98915.91;;;19.00;91.16
24154;BME280;12312;53.362;-1.518;2023-07-08T02:52:14;98917.22;;;19.12;92.11
24154;BME280;12312;53.362;-1.518;2023-07-08T02:54:58;98921.25;;;19.16;91.26
24154;BME280;12312;53.362;-1.518;2023-07-08T02:57:42;98925.97;;;19.14;91.79
24154;BME280;12312;53.362;-1.518;2023-07-08T03:00:25;98912.88;;;18.95;91.41
24154;BME280;12312;53.362;-1.518;2023-07-08T03:03:11;98917.75;;;18.92;93.64
24154;BME280;12312;53.362;-1.518;2023-07-08T03:06:01;98912.03;;;18.63;93.72
24154;BME280;12312;53.362;-1.518;2023-07-08T03:08:46;98908.50;;;18.78;94.51
24154;BME280;12312;53.362;-1.518;2023-07-08T03:11:32;98909.50;;;18.85;94.19
24154;BME280;12312;53.362;-1.518;2023-07-08T03:14:16;98909.69;;;18.76;94.79
24154;BME280;12312;53.362;-1.518;2023-07-08T03:17:00;98906.16;;;18.59;94.20
24154;BME280;12312;53.362;-1.518;2023-07-08T03:19:45;98902.75;;;18.73;94.33
24154;BME280;12312;53.362;-1.518;2023-07-08T03:22:28;98902.78;;;18.57;93.94
24154;BME280;12312;53.362;-1.518;2023-07-08T03:25:13;98902.41;;;18.28;96.82
24154;BME280;12312;53.362;-1.518;2023-07-08T03:27:57;98906.78;;;18.29;97.54
24154;BME280;12312;53.362;-1.518;2023-07-08T03:30:42;98911.84;;;18.24;96.71
24154;BME280;12312;53.362;-1.518;2023-07-08T03:33:26;98912.78;;;17.83;99.68
24154;BME280;12312;53.362;-1.518;2023-07-08T03:36:17;98910.47;;;18.04;99.38
24154;BME280;12312;53.362;-1.518;2023-07-08T03:39:09;98897.03;;;18.44;99.17
24154;BME280;12312;53.362;-1.518;2023-07-08T03:41:54;98889.28;;;18.33;99.42
24154;BME280;12312;53.362;-1.518;2023-07-08T03:44:38;98894.88;;;17.66;100.00
24154;BME280;12312;53.362;-1.518;2023-07-08T03:47:22;98892.97;;;18.16;99.80
24154;BME280;12312;53.362;-1.518;2023-07-08T03:50:21;98905.75;;;18.06;98.41
24154;BME280;12312;53.362;-1.518;2023-07-08T03:53:05;98899.34;;;18.23;100.00
24154;BME280;12312;53.362;-1.518;2023-07-08T03:55:49;98903.41;;;18.19;97.58
24154;BME280;12312;53.362;-1.518;2023-07-08T03:58:33;98911.81;;;18.08;99.02
24154;BME280;12312;53.362;-1.518;2023-07-08T04:01:20;98907.47;;;18.31;97.07
24154;BME280;12312;53.362;-1.518;2023-07-08T04:04:04;98906.78;;;18.13;98.46
24154;BME280;12312;53.362;-1.518;2023-07-08T04:06:48;98907.63;;;18.14;97.61
24154;BME280;12312;53.362;-1.518;2023-07-08T04:09:34;98916.19;;;18.17;97.30
24154;BME280;12312;53.362;-1.518;2023-07-08T04:12:17;98909.59;;;17.88;100.00
24154;BME280;12312;53.362;-1.518;2023-07-08T04:15:02;98916.38;;;18.08;98.46
24154;BME280;12312;53.362;-1.518;2023-07-08T04:17:48;98919.22;;;18.14;98.42
24154;BME280;12312;53.362;-1.518;2023-07-08T04:20:32;98923.63;;;18.15;98.10
24154;BME280;12312;53.362;-1.518;2023-07-08T04:23:17;98923.09;;;18.12;99.08
24154;BME280;12312;53.362;-1.518;2023-07-08T04:26:01;98921.91;;;18.14;98.63
24154;BME280;12312;53.362;-1.518;2023-07-08T04:28:45;98915.84;;;18.04;99.98
24154;BME280;12312;53.362;-1.518;2023-07-08T04:31:29;98912.78;;;17.99;99.46
24154;BME280;12312;53.362;-1.518;2023-07-08T04:34:14;98909.94;;;18.01;100.00
24154;BME280;12312;53.362;-1.518;2023-07-08T04:36:58;98919.81;;;17.84;100.00
24154;BME280;12312;53.362;-1.518;2023-07-08T04:39:42;98910.75;;;17.93;100.00
24154;BME280;12312;53.362;-1.518;2023-07-08T04:42:26;98902.69;;;17.93;100.00
24154;BME280;12312;53.362;-1.518;2023-07-08T04:45:16;98906.75;;;18.05;100.00
24154;BME280;12312;53.362;-1.518;2023-07-08T04:48:01;98900.81;;;17.86;100.00
24154;BME280;12312;53.362;-1.518;2023-07-08T04:50:53;98893.91;;;17.91;100.00
24154;BME280;12312;53.362;-1.518;2023-07-08T04:53:37;98888.91;;;18.20;100.00
24154;BME280;12312;53.362;-1.518;2023-07-08T04:56:21;98891.63;;;18.12;100.00
24154;BME280;12312;53.362;-1.518;2023-07-08T04:59:12;98900.22;;;18.08;100.00
24154;BME280;12312;53.362;-1.518;2023-07-08T05:01:57;98898.69;;;18.29;100.00
24154;BME280;12312;53.362;-1.518;2023-07-08T05:04:41;98890.97;;;18.34;100.00
24154;BME280;12312;53.362;-1.518;2023-07-08T05:07:25;98893.03;;;18.56;100.00
24154;BME280;12312;53.362;-1.518;2023-07-08T05:10:09;98905.28;;;18.43;100.00
24154;BME280;12312;53.362;-1.518;2023-07-08T05:12:53;98896.00;;;18.29;100.00
24154;BME280;12312;53.362;-1.518;2023-07-08T05:15:37;98893.34;;;18.45;100.00
24154;BME280;12312;53.362;-1.518;2023-07-08T05:18:21;98905.97;;;18.69;100.00
24154;BME280;12312;53.362;-1.518;2023-07-08T05:21:05;98904.44;;;18.82;99.84
24154;BME280;12312;53.362;-1.518;2023-07-08T05:23:50;98913.88;;;18.78;99.98
24154;BME280;12312;53.362;-1.518;2023-07-08T05:26:35;98888.63;;;18.71;96.88
24154;BME280;12312;53.362;-1.518;2023-07-08T05:29:19;98900.53;;;19.01;96.31
24154;BME280;12312;53.362;-1.518;2023-07-08T05:32:03;98882.78;;;19.22;95.85
24154;BME280;12312;53.362;-1.518;2023-07-08T05:34:47;98894.63;;;19.13;98.15
24154;BME280;12312;53.362;-1.518;2023-07-08T05:37:31;98885.19;;;19.01;96.57
24154;BME280;12312;53.362;-1.518;2023-07-08T05:40:15;98885.50;;;19.14;96.79
24154;BME280;12312;53.362;-1.518;2023-07-08T05:43:00;98883.13;;;19.27;96.44
24154;BME280;12312;53.362;-1.518;2023-07-08T05:45:44;98895.75;;;19.19;97.37
24154;BME280;12312;53.362;-1.518;2023-07-08T05:48:29;98892.56;;;19.31;97.17
24154;BME280;12312;53.362;-1.518;2023-07-08T05:51:13;98881.69;;;19.48;96.60
24154;BME280;12312;53.362;-1.518;2023-07-08T05:53:57;98895.34;;;19.46;97.47
24154;BME280;12312;53.362;-1.518;2023-07-08T05:56:41;98891.47;;;19.57;94.17
24154;BME280;12312;53.362;-1.518;2023-07-08T05:59:25;98909.97;;;19.29;96.13
24154;BME280;12312;53.362;-1.518;2023-07-08T06:02:10;98898.34;;;19.67;94.02
24154;BME280;12312;53.362;-1.518;2023-07-08T06:04:56;98894.16;;;19.57;94.90
24154;BME280;12312;53.362;-1.518;2023-07-08T06:07:40;98898.03;;;19.93;93.16
24154;BME280;12312;53.362;-1.518;2023-07-08T06:10:23;98894.84;;;20.12;94.49
24154;BME280;12312;53.362;-1.518;2023-07-08T06:13:07;98895.69;;;20.43;92.57
24154;BME280;12312;53.362;-1.518;2023-07-08T06:15:51;98893.56;;;20.00;94.11
24154;BME280;12312;53.362;-1.518;2023-07-08T06:18:35;98898.94;;;20.16;94.50
24154;BME280;12312;53.362;-1.518;2023-07-08T06:21:20;98895.72;;;19.82;95.59
24154;BME280;12312;53.362;-1.518;2023-07-08T06:24:05;98894.84;;;19.51;96.73
24154;BME280;12312;53.362;-1.518;2023-07-08T06:26:49;98901.56;;;19.63;96.93
24154;BME280;12312;53.362;-1.518;2023-07-08T06:29:34;98900.59;;;19.48;97.12
24154;BME280;12312;53.362;-1.518;2023-07-08T06:32:18;98907.94;;;19.70;96.23
24154;BME280;12312;53.362;-1.518;2023-07-08T06:35:02;98935.13;;;19.99;98.36
24154;BME280;12312;53.362;-1.518;2023-07-08T06:37:47;98923.06;;;19.79;95.80
24154;BME280;12312;53.362;-1.518;2023-07-08T06:40:31;98924.22;;;19.54;97.27
24154;BME280;12312;53.362;-1.518;2023-07-08T06:43:15;98931.63;;;19.52;98.61
24154;BME280;12312;53.362;-1.518;2023-07-08T06:45:59;98934.75;;;19.71;98.33
24154;BME280;12312;53.362;-1.518;2023-07-08T06:48:43;98931.22;;;19.71;97.37
24154;BME280;12312;53.362;-1.518;2023-07-08T06:51:27;98926.16;;;19.68;98.39
24154;BME280;12312;53.362;-1.518;2023-07-08T06:54:12;98930.78;;;19.90;98.25
24154;BME280;12312;53.362;-1.518;2023-07-08T06:56:56;98927.78;;;19.85;99.00
24154;BME280;12312;53.362;-1.518;2023-07-08T06:59:40;98937.47;;;20.02;97.47
24154;BME280;12312;53.362;-1.518;2023-07-08T07:02:24;98924.75;;;20.18;97.71
24154;BME280;12312;53.362;-1.518;2023-07-08T07:05:08;98919.88;;;20.06;99.02
24154;BME280;12312;53.362;-1.518;2023-07-08T07:07:51;98924.16;;;20.53;96.04
24154;BME280;12312;53.362;-1.518;2023-07-08T07:10:36;98918.03;;;20.59;95.06
24154;BME280;12312;53.362;-1.518;2023-07-08T07:13:21;98917.50;;;20.41;96.60
24154;BME280;12312;53.362;-1.518;2023-07-08T07:16:05;98919.88;;;20.59;95.53
24154;BME280;12312;53.362;-1.518;2023-07-08T07:18:49;98917.78;;;20.69;94.89
24154;BME280;12312;53.362;-1.518;2023-07-08T07:21:35;98918.34;;;20.79;93.95
24154;BME280;12312;53.362;-1.518;2023-07-08T07:24:19;98918.81;;;21.05;95.23
24154;BME280;12312;53.362;-1.518;2023-07-08T07:27:03;98912.16;;;20.93;93.54
24154;BME280;12312;53.362;-1.518;2023-07-08T07:29:49;98915.00;;;21.29;97.37
24154;BME280;12312;53.362;-1.518;2023-07-08T07:32:34;98919.69;;;21.49;99.44
24154;BME280;12312;53.362;-1.518;2023-07-08T07:35:19;98914.00;;;21.44;93.81
24154;BME280;12312;53.362;-1.518;2023-07-08T07:38:03;98909.31;;;21.53;93.31
24154;BME280;12312;53.362;-1.518;2023-07-08T07:40:47;98915.00;;;21.58;95.89
24154;BME280;12312;53.362;-1.518;2023-07-08T07:43:30;98920.63;;;21.71;91.92
24154;BME280;12312;53.362;-1.518;2023-07-08T07:46:14;98918.81;;;21.92;91.23
24154;BME280;12312;53.362;-1.518;2023-07-08T07:48:58;98921.97;;;22.10;93.04
24154;BME280;12312;53.362;-1.518;2023-07-08T07:51:42;98933.06;;;22.15;90.29
24154;BME280;12312;53.362;-1.518;2023-07-08T07:54:26;98937.81;;;21.78;93.19
24154;BME280;12312;53.362;-1.518;2023-07-08T07:57:11;98948.75;;;21.84;93.30
24154;BME280;12312;53.362;-1.518;2023-07-08T07:59:54;98947.63;;;21.93;92.76
24154;BME280;12312;53.362;-1.518;2023-07-08T08:02:39;98957.59;;;21.93;92.90
24154;BME280;12312;53.362;-1.518;2023-07-08T08:05:23;98951.34;;;21.92;93.19
24154;BME280;12312;53.362;-1.518;2023-07-08T08:08:07;98953.69;;;21.81;93.50
24154;BME280;12312;53.362;-1.518;2023-07-08T08:10:52;98957.31;;;21.88;93.62
24154;BME280;12312;53.362;-1.518;2023-07-08T08:13:36;98953.56;;;22.03;93.90
24154;BME280;12312;53.362;-1.518;2023-07-08T08:16:20;98954.50;;;22.10;92.68
24154;BME280;12312;53.362;-1.518;2023-07-08T08:19:04;98940.81;;;22.18;91.34
24154;BME280;12312;53.362;-1.518;2023-07-08T08:21:48;98937.13;;;22.40;92.31
24154;BME280;12312;53.362;-1.518;2023-07-08T08:24:33;98947.94;;;22.19;93.59
24154;BME280;12312;53.362;-1.518;2023-07-08T08:27:17;98933.94;;;22.37;93.30
24154;BME280;12312;53.362;-1.518;2023-07-08T08:30:04;98940.81;;;22.18;94.82
24154;BME280;12312;53.362;-1.518;2023-07-08T08:32:48;98938.47;;;22.30;92.51
24154;BME280;12312;53.362;-1.518;2023-07-08T08:35:32;98932.50;;;22.20;93.57
24154;BME280;12312;53.362;-1.518;2023-07-08T08:38:16;98924.75;;;22.17;93.60
24154;BME280;12312;53.362;-1.518;2023-07-08T08:41:12;98913.91;;;22.38;94.63
24154;BME280;12312;53.362;-1.518;2023-07-08T08:43:56;98906.66;;;22.59;92.27
24154;BME280;12312;53.362;-1.518;2023-07-08T08:46:49;98906.25;;;22.62;93.61
24154;BME280;12312;53.362;-1.518;2023-07-08T08:49:45;98910.28;;;22.94;94.22
24154;BME280;12312;53.362;-1.518;2023-07-08T08:52:33;98919.44;;;22.65;93.19
24154;BME280;12312;53.362;-1.518;2023-07-08T08:55:17;98916.72;;;22.65;92.44
24154;BME280;12312;53.362;-1.518;2023-07-08T08:58:22;98925.38;;;22.54;94.31
24154;BME280;12312;53.362;-1.518;2023-07-08T09:01:13;98926.31;;;22.61;94.78
24154;BME280;12312;53.362;-1.518;2023-07-08T09:04:20;98934.44;;;22.61;94.81
24154;BME280;12312;53.362;-1.518;2023-07-08T09:07:08;98947.63;;;22.64;95.58
24154;BME280;12312;53.362;-1.518;2023-07-08T09:13:02;98982.06;;;22.49;97.37
24154;BME280;12312;53.362;-1.518;2023-07-08T09:15:49;98992.38;;;22.39;98.49
24154;BME280;12312;53.362;-1.518;2023-07-08T09:25:11;98985.78;;;22.48;96.39
24154;BME280;12312;53.362;-1.518;2023-07-08T09:28:02;98998.56;;;22.33;98.03
24154;BME280;12312;53.362;-1.518;2023-07-08T09:30:48;99009.34;;;22.12;98.51
24154;BME280;12312;53.362;-1.518;2023-07-08T09:33:39;99010.56;;;22.24;98.02
24154;BME280;12312;53.362;-1.518;2023-07-08T09:36:24;99004.59;;;22.14;99.54
24154;BME280;12312;53.362;-1.518;2023-07-08T09:39:11;99006.22;;;22.09;99.21
24154;BME280;12312;53.362;-1.518;2023-07-08T09:41:55;99008.84;;;22.52;96.98
24154;BME280;12312;53.362;-1.518;2023-07-08T09:44:40;99009.19;;;22.49;96.69
24154;BME280;12312;53.362;-1.518;2023-07-08T09:47:27;99004.88;;;22.69;95.81
24154;BME280;12312;53.362;-1.518;2023-07-08T09:53:13;99004.72;;;23.41;94.02
24154;BME280;12312;53.362;-1.518;2023-07-08T09:55:59;99014.28;;;23.37;93.78
24154;BME280;12312;53.362;-1.518;2023-07-08T09:58:44;99022.22;;;23.38;93.37
24154;BME280;12312;53.362;-1.518;2023-07-08T10:01:32;99024.94;;;23.66;96.01
24154;BME280;12312;53.362;-1.518;2023-07-08T10:04:17;99020.47;;;24.13;92.09
24154;BME280;12312;53.362;-1.518;2023-07-08T10:07:05;99023.03;;;24.28;89.74
24154;BME280;12312;53.362;-1.518;2023-07-08T10:09:57;99030.16;;;23.95;91.04
24154;BME280;12312;53.362;-1.518;2023-07-08T10:12:55;99024.25;;;23.85;91.08
24154;BME280;12312;53.362;-1.518;2023-07-08T10:15:44;99041.25;;;24.34;89.96
24154;BME280;12312;53.362;-1.518;2023-07-08T10:18:30;99030.88;;;24.57;89.85
24154;BME280;12312;53.362;-1.518;2023-07-08T10:21:36;99041.34;;;24.47;88.74
24154;BME280;12312;53.362;-1.518;2023-07-08T10:33:00;99078.44;;;23.93;93.52
24154;BME280;12312;53.362;-1.518;2023-07-08T10:36:11;99090.38;;;23.92;94.94
24154;BME280;12312;53.362;-1.518;2023-07-08T10:39:19;99106.50;;;23.93;95.14
24154;BME280;12312;53.362;-1.518;2023-07-08T10:45:16;99130.97;;;23.45;98.30
24154;BME280;12312;53.362;-1.518;2023-07-08T10:48:07;99136.91;;;23.55;97.84
24154;BME280;12312;53.362;-1.518;2023-07-08T10:54:07;99160.28;;;23.49;99.38
24154;BME280;12312;53.362;-1.518;2023-07-08T10:57:00;99155.81;;;23.42;99.75
24154;BME280;12312;53.362;-1.518;2023-07-08T10:59:56;99146.66;;;22.93;100.00
24154;BME280;12312;53.362;-1.518;2023-07-08T11:05:57;99151.69;;;22.60;100.00
24154;BME280;12312;53.362;-1.518;2023-07-08T11:08:50;99166.38;;;22.65;100.00
24154;BME280;12312;53.362;-1.518;2023-07-08T11:11:53;99169.25;;;22.49;100.00
24154;BME280;12312;53.362;-1.518;2023-07-08T11:14:58;99174.16;;;22.54;100.00
24154;BME280;12312;53.362;-1.518;2023-07-08T11:17:49;99179.31;;;22.63;100.00
24154;BME280;12312;53.362;-1.518;2023-07-08T11:20:50;99166.75;;;22.62;100.00
24154;BME280;12312;53.362;-1.518;2023-07-08T11:23:44;99171.16;;;22.63;100.00
24154;BME280;12312;53.362;-1.518;2023-07-08T11:26:54;99183.41;;;22.59;100.00
24154;BME280;12312;53.362;-1.518;2023-07-08T11:29:44;99187.66;;;22.39;100.00
24154;BME280;12312;53.362;-1.518;2023-07-08T11:32:31;99192.72;;;22.13;100.00
24154;BME280;12312;53.362;-1.518;2023-07-08T11:35:21;99188.59;;;22.32;100.00
24154;BME280;12312;53.362;-1.518;2023-07-08T11:38:05;99195.50;;;22.05;100.00
24154;BME280;12312;53.362;-1.518;2023-07-08T11:41:12;99191.69;;;22.29;100.00
24154;BME280;12312;53.362;-1.518;2023-07-08T11:44:02;99177.56;;;22.33;100.00
24154;BME280;12312;53.362;-1.518;2023-07-08T11:46:57;99189.84;;;21.92;100.00
24154;BME280;12312;53.362;-1.518;2023-07-08T11:49:42;99169.25;;;21.83;100.00
24154;BME280;12312;53.362;-1.518;2023-07-08T11:52:26;99151.47;;;21.66;100.00
24154;BME280;12312;53.362;-1.518;2023-07-08T11:55:21;99123.81;;;21.48;100.00
24154;BME280;12312;53.362;-1.518;2023-07-08T11:58:07;99137.38;;;21.26;100.00
24154;BME280;12312;53.362;-1.518;2023-07-08T12:03:55;99167.84;;;20.89;100.00
24154;BME280;12312;53.362;-1.518;2023-07-08T12:07:03;99168.91;;;21.19;100.00
24154;BME280;12312;53.362;-1.518;2023-07-08T12:12:52;99169.31;;;21.30;100.00
24154;BME280;12312;53.362;-1.518;2023-07-08T12:15:35;99178.78;;;21.34;100.00
24154;BME280;12312;53.362;-1.518;2023-07-08T12:18:21;99153.97;;;21.45;100.00
24154;BME280;12312;53.362;-1.518;2023-07-08T12:21:08;99170.59;;;21.65;100.00
24154;BME280;12312;53.362;-1.518;2023-07-08T12:23:52;99161.19;;;21.53;100.00
24154;BME280;12312;53.362;-1.518;2023-07-08T12:26:36;99181.91;;;21.23;100.00
24154;BME280;12312;53.362;-1.518;2023-07-08T12:29:20;99197.28;;;21.23;100.00
24154;BME280;12312;53.362;-1.518;2023-07-08T12:32:04;99197.44;;;21.52;100.00
24154;BME280;12312;53.362;-1.518;2023-07-08T12:34:49;99198.03;;;21.39;100.00
24154;BME280;12312;53.362;-1.518;2023-07-08T12:37:33;99201.72;;;21.24;100.00
24154;BME280;12312;53.362;-1.518;2023-07-08T12:40:17;99197.25;;;21.31;100.00
24154;BME280;12312;53.362;-1.518;2023-07-08T12:43:01;99211.00;;;21.21;100.00
24154;BME280;12312;53.362;-1.518;2023-07-08T12:45:46;99212.19;;;21.49;100.00
24154;BME280;12312;53.362;-1.518;2023-07-08T12:48:34;99207.78;;;21.48;100.00
24154;BME280;12312;53.362;-1.518;2023-07-08T12:51:24;99196.59;;;21.51;100.00
24154;BME280;12312;53.362;-1.518;2023-07-08T12:54:09;99184.66;;;21.38;100.00
24154;BME280;12312;53.362;-1.518;2023-07-08T12:56:54;99211.78;;;21.07;100.00
24154;BME280;12312;53.362;-1.518;2023-07-08T12:59:38;99213.06;;;20.80;100.00
24154;BME280;12312;53.362;-1.518;2023-07-08T13:02:25;99219.09;;;20.90;100.00
24154;BME280;12312;53.362;-1.518;2023-07-08T13:05:11;99232.28;;;21.01;100.00
24154;BME280;12312;53.362;-1.518;2023-07-08T13:07:56;99225.22;;;21.23;100.00
24154;BME280;12312;53.362;-1.518;2023-07-08T13:10:42;99222.63;;;21.07;100.00
24154;BME280;12312;53.362;-1.518;2023-07-08T13:13:31;99222.66;;;20.99;100.00
24154;BME280;12312;53.362;-1.518;2023-07-08T13:16:17;99222.06;;;20.65;100.00
24154;BME280;12312;53.362;-1.518;2023-07-08T13:19:02;99234.63;;;20.58;100.00
24154;BME280;12312;53.362;-1.518;2023-07-08T13:21:47;99240.94;;;20.02;100.00
24154;BME280;12312;53.362;-1.518;2023-07-08T13:24:33;99236.38;;;20.27;100.00
24154;BME280;12312;53.362;-1.518;2023-07-08T13:27:27;99241.44;;;20.30;100.00
24154;BME280;12312;53.362;-1.518;2023-07-08T13:30:18;99252.13;;;20.15;100.00
24154;BME280;12312;53.362;-1.518;2023-07-08T13:33:02;99253.28;;;20.05;100.00
24154;BME280;12312;53.362;-1.518;2023-07-08T13:35:48;99238.44;;;19.93;100.00
24154;BME280;12312;53.362;-1.518;2023-07-08T13:38:35;99222.22;;;19.85;100.00
24154;BME280;12312;53.362;-1.518;2023-07-08T13:41:22;99227.25;;;19.80;100.00
24154;BME280;12312;53.362;-1.518;2023-07-08T13:44:08;99208.69;;;19.85;100.00
24154;BME280;12312;53.362;-1.518;2023-07-08T13:46:54;99213.09;;;20.10;100.00
24154;BME280;12312;53.362;-1.518;2023-07-08T13:49:44;99206.50;;;20.20;100.00
24154;BME280;12312;53.362;-1.518;2023-07-08T13:52:28;99204.97;;;20.18;100.00
24154;BME280;12312;53.362;-1.518;2023-07-08T13:55:18;99203.69;;;20.52;100.00
24154;BME280;12312;53.362;-1.518;2023-07-08T13:58:03;99189.94;;;20.70;100.00
24154;BME280;12312;53.362;-1.518;2023-07-08T14:00:47;99180.09;;;21.38;100.00
24154;BME280;12312;53.362;-1.518;2023-07-08T14:03:31;99177.25;;;21.54;100.00
24154;BME280;12312;53.362;-1.518;2023-07-08T14:06:17;99164.44;;;21.26;100.00
24154;BME280;12312;53.362;-1.518;2023-07-08T14:09:11;99163.03;;;21.60;100.00
24154;BME280;12312;53.362;-1.518;2023-07-08T14:11:56;99159.03;;;21.93;100.00
24154;BME280;12312;53.362;-1.518;2023-07-08T14:14:40;99147.81;;;21.96;100.00
24154;BME280;12312;53.362;-1.518;2023-07-08T14:17:25;99125.53;;;21.86;100.00
24154;BME280;12312;53.362;-1.518;2023-07-08T14:20:16;99140.06;;;21.48;100.00
24154;BME280;12312;53.362;-1.518;2023-07-08T14:22:59;99135.19;;;21.66;100.00
24154;BME280;12312;53.362;-1.518;2023-07-08T14:25:43;99143.38;;;21.81;100.00
24154;BME280;12312;53.362;-1.518;2023-07-08T14:28:27;99150.88;;;21.93;100.00
24154;BME280;12312;53.362;-1.518;2023-07-08T14:31:15;99177.00;;;21.49;100.00
24154;BME280;12312;53.362;-1.518;2023-07-08T14:34:05;99166.69;;;22.04;100.00
24154;BME280;12312;53.362;-1.518;2023-07-08T14:36:49;99182.38;;;21.94;100.00
24154;BME280;12312;53.362;-1.518;2023-07-08T14:39:33;99187.47;;;22.26;100.00
24154;BME280;12312;53.362;-1.518;2023-07-08T14:42:19;99195.06;;;21.79;100.00
24154;BME280;12312;53.362;-1.518;2023-07-08T14:45:04;99197.09;;;21.55;100.00
24154;BME280;12312;53.362;-1.518;2023-07-08T14:47:51;99186.72;;;21.58;100.00
24154;BME280;12312;53.362;-1.518;2023-07-08T14:50:35;99211.72;;;21.15;100.00
24154;BME280;12312;53.362;-1.518;2023-07-08T14:53:20;99207.59;;;21.27;100.00
24154;BME280;12312;53.362;-1.518;2023-07-08T14:56:13;99221.13;;;21.27;100.00
24154;BME280;12312;53.362;-1.518;2023-07-08T14:58:59;99224.66;;;21.58;100.00
24154;BME280;12312;53.362;-1.518;2023-07-08T15:01:43;99218.63;;;21.48;100.00
24154;BME280;12312;53.362;-1.518;2023-07-08T15:04:28;99230.09;;;21.28;100.00
24154;BME280;12312;53.362;-1.518;2023-07-08T15:07:12;99218.50;;;21.19;100.00